sensor_id;sensor_type;location;lat;lon;timestamp;pressure;altitude;pressure_sealevel;temperature;humidity
14343;BME280;7255;53.596;9.960;2023-05-07T00:02:22;101908.69;;;10.49;nan
14343;BME280;7255;53.596;9.960;2023-05-07T00:04:48;101903.09;;;10.22;nan
14343;BME280;7255;53.596;9.960;2023-05-07T00:07:15;101897.41;;;10.32;nan
14343;BME280;7255;53.596;9.960;2023-05-07T00:09:43;101900.63;;;10.27;nan
14343;BME280;7255;53.596;9.960;2023-05-07T00:12:09;101902.81;;;10.38;nan
14343;BME280;7255;53.596;9.960;2023-05-07T00:14:35;101900.06;;;10.60;nan
14343;BME280;7255;53.596;9.960;2023-05-07T00:17:02;101897.84;;;10.35;nan
14343;BME280;7255;53.596;9.960;2023-05-07T00:19:28;101901.09;;;10.31;nan
14343;BME280;7255;53.596;9.960;2023-05-07T00:21:54;101897.31;;;10.25;nan
14343;BME280;7255;53.596;9.960;2023-05-07T00:24:21;101900.81;;;10.47;nan
14343;BME280;7255;53.596;9.960;2023-05-07T00:26:49;101904.19;;;10.56;nan
14343;BME280;7255;53.596;9.960;2023-05-07T00:29:15;101906.25;;;10.54;nan
14343;BME280;7255;53.596;9.960;2023-05-07T00:31:41;101907.41;;;10.45;nan
14343;BME280;7255;53.596;9.960;2023-05-07T00:34:08;101901.16;;;10.37;nan
14343;BME280;7255;53.596;9.960;2023-05-07T00:36:34;101906.25;;;10.54;nan
14343;BME280;7255;53.596;9.960;2023-05-07T00:39:01;101897.50;;;10.45;nan
14343;BME280;7255;53.596;9.960;2023-05-07T00:41:28;101901.69;;;10.54;nan
14343;BME280;7255;53.596;9.960;2023-05-07T00:43:56;101896.00;;;10.64;nan
14343;BME280;7255;53.596;9.960;2023-05-07T00:46:23;101905.88;;;10.64;nan
14343;BME280;7255;53.596;9.960;2023-05-07T00:48:50;101899.19;;;10.53;nan
14343;BME280;7255;53.596;9.960;2023-05-07T00:51:17;101893.78;;;10.46;nan
14343;BME280;7255;53.596;9.960;2023-05-07T00:53:43;101892.06;;;10.38;nan
14343;BME280;7255;53.596;9.960;2023-05-07T00:56:11;101893.81;;;10.53;nan
14343;BME280;7255;53.596;9.960;2023-05-07T00:58:38;101885.62;;;10.61;nan
14343;BME280;7255;53.596;9.960;2023-05-07T01:01:05;101887.63;;;10.52;nan
14343;BME280;7255;53.596;9.960;2023-05-07T01:03:32;101888.88;;;10.56;nan
14343;BME280;7255;53.596;9.960;2023-05-07T01:05:59;101888.94;;;10.63;nan
14343;BME280;7255;53.596;9.960;2023-05-07T01:08:27;101890.28;;;10.81;nan
14343;BME280;7255;53.596;9.960;2023-05-07T01:10:56;101891.16;;;10.88;nan
14343;BME280;7255;53.596;9.960;2023-05-07T01:13:24;101886.38;;;10.55;nan
14343;BME280;7255;53.596;9.960;2023-05-07T01:15:51;101878.56;;;10.60;nan
14343;BME280;7255;53.596;9.960;2023-05-07T01:18:18;101888.13;;;10.63;nan
14343;BME280;7255;53.596;9.960;2023-05-07T01:20:45;101888.97;;;10.20;nan
14343;BME280;7255;53.596;9.960;2023-05-07T01:23:13;101878.22;;;10.13;nan
14343;BME280;7255;53.596;9.960;2023-05-07T01:25:39;101876.34;;;9.92;nan
14343;BME280;7255;53.596;9.960;2023-05-07T01:28:05;101878.59;;;10.10;nan
14343;BME280;7255;53.596;9.960;2023-05-07T01:30:33;101881.53;;;10.15;nan
14343;BME280;7255;53.596;9.960;2023-05-07T01:33:04;101875.81;;;10.25;nan
14343;BME280;7255;53.596;9.960;2023-05-07T01:35:34;101869.56;;;10.18;nan
14343;BME280;7255;53.596;9.960;2023-05-07T01:38:02;101877.34;;;10.13;nan
14343;BME280;7255;53.596;9.960;2023-05-07T01:40:30;101869.06;;;10.08;nan
14343;BME280;7255;53.596;9.960;2023-05-07T01:42:57;101864.34;;;10.31;nan
14343;BME280;7255;53.596;9.960;2023-05-07T01:45:24;101851.72;;;10.10;nan
14343;BME280;7255;53.596;9.960;2023-05-07T01:47:52;101865.78;;;10.12;nan
14343;BME280;7255;53.596;9.960;2023-05-07T01:50:19;101863.25;;;10.04;nan
14343;BME280;7255;53.596;9.960;2023-05-07T01:52:45;101878.25;;;10.20;nan
14343;BME280;7255;53.596;9.960;2023-05-07T01:55:13;101880.75;;;10.21;nan
14343;BME280;7255;53.596;9.960;2023-05-07T01:57:40;101873.94;;;9.97;nan
14343;BME280;7255;53.596;9.960;2023-05-07T02:00:08;101872.69;;;10.00;nan
14343;BME280;7255;53.596;9.960;2023-05-07T02:02:34;101878.59;;;10.10;nan
14343;BME280;7255;53.596;9.960;2023-05-07T02:05:01;101874.97;;;10.25;nan
14343;BME280;7255;53.596;9.960;2023-05-07T02:07:27;101880.19;;;10.05;nan
14343;BME280;7255;53.596;9.960;2023-05-07T02:09:54;101886.81;;;10.09;nan
14343;BME280;7255;53.596;9.960;2023-05-07T02:12:21;101891.09;;;10.25;nan
14343;BME280;7255;53.596;9.960;2023-05-07T02:14:49;101890.66;;;10.21;nan
14343;BME280;7255;53.596;9.960;2023-05-07T02:17:15;101905.78;;;10.00;nan
14343;BME280;7255;53.596;9.960;2023-05-07T02:19:41;101909.09;;;10.02;nan
14343;BME280;7255;53.596;9.960;2023-05-07T02:22:10;101897.56;;;10.09;nan
14343;BME280;7255;53.596;9.960;2023-05-07T02:24:36;101893.97;;;10.23;nan
14343;BME280;7255;53.596;9.960;2023-05-07T02:27:02;101913.22;;;10.05;nan
14343;BME280;7255;53.596;9.960;2023-05-07T02:29:29;101906.00;;;10.27;nan
14343;BME280;7255;53.596;9.960;2023-05-07T02:31:56;101912.69;;;10.31;nan
14343;BME280;7255;53.596;9.960;2023-05-07T02:34:23;101912.34;;;10.41;nan
14343;BME280;7255;53.596;9.960;2023-05-07T02:36:49;101909.28;;;10.23;nan
14343;BME280;7255;53.596;9.960;2023-05-07T02:39:16;101904.66;;;10.16;nan
14343;BME280;7255;53.596;9.960;2023-05-07T02:41:42;101901.94;;;10.31;nan
14343;BME280;7255;53.596;9.960;2023-05-07T02:44:09;101908.59;;;10.35;nan
14343;BME280;7255;53.596;9.960;2023-05-07T02:46:35;101914.78;;;10.36;nan
14343;BME280;7255;53.596;9.960;2023-05-07T02:49:02;101909.47;;;10.43;nan
14343;BME280;7255;53.596;9.960;2023-05-07T02:51:30;101905.28;;;10.40;nan
14343;BME280;7255;53.596;9.960;2023-05-07T02:53:56;101918.53;;;10.42;nan
14343;BME280;7255;53.596;9.960;2023-05-07T02:56:25;101913.81;;;10.22;nan
14343;BME280;7255;53.596;9.960;2023-05-07T02:58:51;101921.72;;;10.30;nan
14343;BME280;7255;53.596;9.960;2023-05-07T03:01:18;101909.16;;;10.09;nan
14343;BME280;7255;53.596;9.960;2023-05-07T03:03:45;101917.13;;;10.24;nan
14343;BME280;7255;53.596;9.960;2023-05-07T03:06:13;101914.34;;;10.32;nan
14343;BME280;7255;53.596;9.960;2023-05-07T03:08:40;101905.63;;;10.30;nan
14343;BME280;7255;53.596;9.960;2023-05-07T03:11:06;101916.03;;;10.40;nan
14343;BME280;7255;53.596;9.960;2023-05-07T03:13:33;101925.25;;;10.52;nan
14343;BME280;7255;53.596;9.960;2023-05-07T03:15:59;101926.50;;;10.56;nan
14343;BME280;7255;53.596;9.960;2023-05-07T03:18:25;101924.34;;;10.45;nan
14343;BME280;7255;53.596;9.960;2023-05-07T03:20:52;101938.19;;;10.20;nan
14343;BME280;7255;53.596;9.960;2023-05-07T03:23:19;101934.91;;;10.25;nan
14343;BME280;7255;53.596;9.960;2023-05-07T03:25:46;101916.88;;;9.97;nan
14343;BME280;7255;53.596;9.960;2023-05-07T03:28:12;101924.69;;;9.92;nan
14343;BME280;7255;53.596;9.960;2023-05-07T03:30:38;101919.47;;;10.06;nan
14343;BME280;7255;53.596;9.960;2023-05-07T03:33:05;101923.66;;;10.15;nan
14343;BME280;7255;53.596;9.960;2023-05-07T03:35:31;101923.16;;;10.05;nan
14343;BME280;7255;53.596;9.960;2023-05-07T03:37:57;101921.56;;;10.10;nan
14343;BME280;7255;53.596;9.960;2023-05-07T03:40:25;101923.59;;;10.08;nan
14343;BME280;7255;53.596;9.960;2023-05-07T03:42:51;101912.78;;;10.01;nan
14343;BME280;7255;53.596;9.960;2023-05-07T03:45:18;101913.56;;;9.95;nan
14343;BME280;7255;53.596;9.960;2023-05-07T03:47:44;101904.06;;;9.93;nan
14343;BME280;7255;53.596;9.960;2023-05-07T03:50:10;101908.81;;;10.19;nan
14343;BME280;7255;53.596;9.960;2023-05-07T03:52:37;101913.38;;;10.18;nan
14343;BME280;7255;53.596;9.960;2023-05-07T03:55:03;101925.31;;;10.16;nan
14343;BME280;7255;53.596;9.960;2023-05-07T03:57:32;101927.75;;;10.11;nan
14343;BME280;7255;53.596;9.960;2023-05-07T03:59:58;101932.19;;;10.18;nan
14343;BME280;7255;53.596;9.960;2023-05-07T04:02:24;101927.97;;;10.31;nan
14343;BME280;7255;53.596;9.960;2023-05-07T04:04:51;101927.09;;;10.30;nan
14343;BME280;7255;53.596;9.960;2023-05-07T04:07:18;101919.19;;;10.22;nan
14343;BME280;7255;53.596;9.960;2023-05-07T04:09:44;101928.34;;;10.28;nan
14343;BME280;7255;53.596;9.960;2023-05-07T04:12:10;101925.31;;;10.16;nan
14343;BME280;7255;53.596;9.960;2023-05-07T04:14:38;101935.31;;;10.22;nan
14343;BME280;7255;53.596;9.960;2023-05-07T04:17:04;101933.31;;;10.31;nan
14343;BME280;7255;53.596;9.960;2023-05-07T04:19:33;101949.63;;;10.51;nan
14343;BME280;7255;53.596;9.960;2023-05-07T04:21:59;101946.22;;;10.42;nan
14343;BME280;7255;53.596;9.960;2023-05-07T04:24:26;101948.41;;;10.53;nan
14343;BME280;7255;53.596;9.960;2023-05-07T04:26:52;101955.06;;;10.57;nan
14343;BME280;7255;53.596;9.960;2023-05-07T04:29:20;101938.78;;;10.37;nan
14343;BME280;7255;53.596;9.960;2023-05-07T04:31:47;101942.09;;;10.39;nan
14343;BME280;7255;53.596;9.960;2023-05-07T04:34:14;101937.34;;;10.20;nan
14343;BME280;7255;53.596;9.960;2023-05-07T04:36:41;101939.16;;;10.34;nan
14343;BME280;7255;53.596;9.960;2023-05-07T04:39:08;101954.88;;;10.37;nan
14343;BME280;7255;53.596;9.960;2023-05-07T04:41:35;101932.03;;;10.27;nan
14343;BME280;7255;53.596;9.960;2023-05-07T04:44:02;101937.50;;;10.33;nan
14343;BME280;7255;53.596;9.960;2023-05-07T04:46:29;101941.06;;;10.19;nan
14343;BME280;7255;53.596;9.960;2023-05-07T04:48:57;101939.47;;;10.25;nan
14343;BME280;7255;53.596;9.960;2023-05-07T04:51:23;101931.66;;;10.30;nan
14343;BME280;7255;53.596;9.960;2023-05-07T04:53:50;101937.53;;;10.40;nan
14343;BME280;7255;53.596;9.960;2023-05-07T04:56:16;101936.28;;;10.36;nan
14343;BME280;7255;53.596;9.960;2023-05-07T04:58:43;101941.44;;;10.59;nan
14343;BME280;7255;53.596;9.960;2023-05-07T05:01:09;101953.22;;;10.36;nan
14343;BME280;7255;53.596;9.960;2023-05-07T05:03:35;101955.50;;;10.18;nan
14343;BME280;7255;53.596;9.960;2023-05-07T05:06:03;101952.19;;;10.16;nan
14343;BME280;7255;53.596;9.960;2023-05-07T05:08:29;101970.72;;;10.11;nan
14343;BME280;7255;53.596;9.960;2023-05-07T05:10:56;101957.91;;;10.13;nan
14343;BME280;7255;53.596;9.960;2023-05-07T05:13:23;101960.38;;;10.51;nan
14343;BME280;7255;53.596;9.960;2023-05-07T05:15:49;101965.94;;;10.28;nan
14343;BME280;7255;53.596;9.960;2023-05-07T05:18:16;101952.19;;;10.16;nan
14343;BME280;7255;53.596;9.960;2023-05-07T05:20:42;101951.44;;;10.22;nan
14343;BME280;7255;53.596;9.960;2023-05-07T05:23:10;101961.09;;;10.38;nan
14343;BME280;7255;53.596;9.960;2023-05-07T05:25:36;101973.56;;;10.46;nan
14343;BME280;7255;53.596;9.960;2023-05-07T05:28:04;101963.31;;;10.56;nan
14343;BME280;7255;53.596;9.960;2023-05-07T05:30:30;101962.06;;;10.58;nan
14343;BME280;7255;53.596;9.960;2023-05-07T05:32:57;101964.69;;;10.73;nan
14343;BME280;7255;53.596;9.960;2023-05-07T05:35:23;101961.31;;;10.65;nan
14343;BME280;7255;53.596;9.960;2023-05-07T05:37:49;101957.44;;;10.46;nan
14343;BME280;7255;53.596;9.960;2023-05-07T05:40:17;101970.19;;;10.37;nan
14343;BME280;7255;53.596;9.960;2023-05-07T05:42:43;101937.22;;;10.50;nan
14343;BME280;7255;53.596;9.960;2023-05-07T05:45:10;101974.00;;;10.49;nan
14343;BME280;7255;53.596;9.960;2023-05-07T05:47:37;101973.72;;;10.66;nan
14343;BME280;7255;53.596;9.960;2023-05-07T05:50:04;101980.22;;;10.50;nan
14343;BME280;7255;53.596;9.960;2023-05-07T05:52:31;101985.97;;;10.47;nan
14343;BME280;7255;53.596;9.960;2023-05-07T05:54:57;101994.34;;;10.58;nan
14343;BME280;7255;53.596;9.960;2023-05-07T05:57:25;101997.00;;;10.80;nan
14343;BME280;7255;53.596;9.960;2023-05-07T05:59:51;101993.72;;;10.85;nan
14343;BME280;7255;53.596;9.960;2023-05-07T06:02:17;101995.87;;;10.96;nan
14343;BME280;7255;53.596;9.960;2023-05-07T06:04:44;102002.44;;;10.87;nan
14343;BME280;7255;53.596;9.960;2023-05-07T06:07:10;102001.25;;;10.96;nan
14343;BME280;7255;53.596;9.960;2023-05-07T06:09:36;101991.91;;;10.64;nan
14343;BME280;7255;53.596;9.960;2023-05-07T06:12:03;101998.88;;;10.58;nan
14343;BME280;7255;53.596;9.960;2023-05-07T06:14:30;101995.66;;;10.69;nan
14343;BME280;7255;53.596;9.960;2023-05-07T06:16:57;102006.31;;;10.56;nan
14343;BME280;7255;53.596;9.960;2023-05-07T06:19:23;102008.97;;;10.77;nan
14343;BME280;7255;53.596;9.960;2023-05-07T06:21:51;102004.97;;;10.95;nan
14343;BME280;7255;53.596;9.960;2023-05-07T06:24:17;102012.00;;;10.96;nan
14343;BME280;7255;53.596;9.960;2023-05-07T06:26:44;102002.19;;;10.60;nan
14343;BME280;7255;53.596;9.960;2023-05-07T06:29:10;102025.03;;;10.71;nan
14343;BME280;7255;53.596;9.960;2023-05-07T06:31:38;102012.38;;;10.93;nan
14343;BME280;7255;53.596;9.960;2023-05-07T06:34:04;102013.22;;;10.93;nan
14343;BME280;7255;53.596;9.960;2023-05-07T06:36:30;102012.47;;;11.06;nan
14343;BME280;7255;53.596;9.960;2023-05-07T06:38:56;102006.72;;;11.09;nan
14343;BME280;7255;53.596;9.960;2023-05-07T06:41:23;102001.94;;;10.76;nan
14343;BME280;7255;53.596;9.960;2023-05-07T06:43:49;102002.28;;;10.67;nan
14343;BME280;7255;53.596;9.960;2023-05-07T06:46:16;102007.31;;;10.76;nan
14343;BME280;7255;53.596;9.960;2023-05-07T06:48:43;102005.84;;;11.02;nan
14343;BME280;7255;53.596;9.960;2023-05-07T06:51:09;102010.22;;;11.38;nan
14343;BME280;7255;53.596;9.960;2023-05-07T06:53:36;101996.03;;;11.23;nan
14343;BME280;7255;53.596;9.960;2023-05-07T06:56:02;102015.09;;;11.21;nan
14343;BME280;7255;53.596;9.960;2023-05-07T06:58:28;102017.59;;;11.29;nan
14343;BME280;7255;53.596;9.960;2023-05-07T07:00:55;102016.03;;;11.48;nan
14343;BME280;7255;53.596;9.960;2023-05-07T07:03:21;102016.41;;;11.32;nan
14343;BME280;7255;53.596;9.960;2023-05-07T07:05:51;102026.03;;;11.54;nan
14343;BME280;7255;53.596;9.960;2023-05-07T07:08:17;102029.87;;;11.80;nan
14343;BME280;7255;53.596;9.960;2023-05-07T07:10:46;102025.75;;;11.84;nan
14343;BME280;7255;53.596;9.960;2023-05-07T07:13:12;102036.13;;;11.87;nan
14343;BME280;7255;53.596;9.960;2023-05-07T07:15:38;102021.16;;;11.78;nan
14343;BME280;7255;53.596;9.960;2023-05-07T07:18:05;102026.03;;;11.61;nan
14343;BME280;7255;53.596;9.960;2023-05-07T07:20:32;102024.47;;;11.80;nan
14343;BME280;7255;53.596;9.960;2023-05-07T07:22:59;102031.66;;;12.08;nan
14343;BME280;7255;53.596;9.960;2023-05-07T07:25:26;102027.94;;;12.09;nan
14343;BME280;7255;53.596;9.960;2023-05-07T07:27:52;102036.28;;;12.27;nan
14343;BME280;7255;53.596;9.960;2023-05-07T07:30:18;102030.47;;;12.37;nan
14343;BME280;7255;53.596;9.960;2023-05-07T07:32:44;102027.16;;;12.35;nan
14343;BME280;7255;53.596;9.960;2023-05-07T07:35:11;102029.25;;;12.53;nan
14343;BME280;7255;53.596;9.960;2023-05-07T07:37:37;102033.81;;;12.73;nan
14343;BME280;7255;53.596;9.960;2023-05-07T07:40:06;102016.81;;;12.72;nan
14343;BME280;7255;53.596;9.960;2023-05-07T07:42:32;102026.34;;;12.61;nan
14343;BME280;7255;53.596;9.960;2023-05-07T07:44:59;102027.13;;;12.28;nan
14343;BME280;7255;53.596;9.960;2023-05-07T07:47:25;102028.81;;;12.56;nan
14343;BME280;7255;53.596;9.960;2023-05-07T07:49:51;102033.00;;;12.79;nan
14343;BME280;7255;53.596;9.960;2023-05-07T07:52:18;102052.72;;;12.99;nan
14343;BME280;7255;53.596;9.960;2023-05-07T07:54:44;102044.56;;;13.26;nan
14343;BME280;7255;53.596;9.960;2023-05-07T07:57:12;102045.00;;;13.09;nan
14343;BME280;7255;53.596;9.960;2023-05-07T07:59:38;102054.16;;;12.82;nan
14343;BME280;7255;53.596;9.960;2023-05-07T08:02:05;102046.28;;;12.94;nan
14343;BME280;7255;53.596;9.960;2023-05-07T08:04:31;102049.56;;;13.09;nan
14343;BME280;7255;53.596;9.960;2023-05-07T08:06:58;102055.00;;;13.02;nan
14343;BME280;7255;53.596;9.960;2023-05-07T08:09:24;102052.91;;;13.31;nan
14343;BME280;7255;53.596;9.960;2023-05-07T08:11:50;102059.94;;;13.39;nan
14343;BME280;7255;53.596;9.960;2023-05-07T08:14:18;102050.81;;;13.33;nan
14343;BME280;7255;53.596;9.960;2023-05-07T08:16:45;102048.31;;;13.38;nan
14343;BME280;7255;53.596;9.960;2023-05-07T08:19:11;102056.22;;;13.20;nan
14343;BME280;7255;53.596;9.960;2023-05-07T08:21:38;102053.66;;;13.52;nan
14343;BME280;7255;53.596;9.960;2023-05-07T08:24:05;102063.28;;;13.34;nan
14343;BME280;7255;53.596;9.960;2023-05-07T08:26:32;102062.03;;;13.30;nan
14343;BME280;7255;53.596;9.960;2023-05-07T08:28:58;102057.03;;;13.20;nan
14343;BME280;7255;53.596;9.960;2023-05-07T08:31:26;102052.50;;;12.94;nan
14343;BME280;7255;53.596;9.960;2023-05-07T08:33:52;102061.66;;;12.93;nan
14343;BME280;7255;53.596;9.960;2023-05-07T08:36:18;102060.37;;;12.89;nan
14343;BME280;7255;53.596;9.960;2023-05-07T08:38:45;102064.13;;;13.01;nan
14343;BME280;7255;53.596;9.960;2023-05-07T08:41:11;102067.03;;;12.86;nan
14343;BME280;7255;53.596;9.960;2023-05-07T08:43:40;102072.00;;;13.03;nan
14343;BME280;7255;53.596;9.960;2023-05-07T08:46:08;102062.03;;;13.37;nan
14343;BME280;7255;53.596;9.960;2023-05-07T08:48:36;102072.84;;;13.10;nan
14343;BME280;7255;53.596;9.960;2023-05-07T08:51:03;102087.78;;;13.19;nan
14343;BME280;7255;53.596;9.960;2023-05-07T08:53:29;102065.75;;;13.29;nan
14343;BME280;7255;53.596;9.960;2023-05-07T08:55:56;102087.34;;;13.09;nan
14343;BME280;7255;53.596;9.960;2023-05-07T08:58:22;102084.03;;;13.07;nan
14343;BME280;7255;53.596;9.960;2023-05-07T09:00:49;102091.09;;;13.28;nan
14343;BME280;7255;53.596;9.960;2023-05-07T09:03:17;102084.44;;;13.57;nan
14343;BME280;7255;53.596;9.960;2023-05-07T09:05:45;102084.88;;;13.41;nan
14343;BME280;7255;53.596;9.960;2023-05-07T09:08:14;102096.47;;;13.21;nan
14343;BME280;7255;53.596;9.960;2023-05-07T09:10:41;102091.47;;;13.52;nan
14343;BME280;7255;53.596;9.960;2023-05-07T09:13:07;102091.03;;;13.68;nan
14343;BME280;7255;53.596;9.960;2023-05-07T09:15:34;102084.44;;;13.44;nan
14343;BME280;7255;53.596;9.960;2023-05-07T09:18:00;102095.19;;;13.71;nan
14343;BME280;7255;53.596;9.960;2023-05-07T09:20:27;102098.50;;;13.79;nan
14343;BME280;7255;53.596;9.960;2023-05-07T09:22:57;102096.91;;;13.45;nan
14343;BME280;7255;53.596;9.960;2023-05-07T09:25:28;102106.03;;;13.51;nan
14343;BME280;7255;53.596;9.960;2023-05-07T09:27:54;102094.81;;;13.54;nan
14343;BME280;7255;53.596;9.960;2023-05-07T09:30:21;102102.22;;;13.85;nan
14343;BME280;7255;53.596;9.960;2023-05-07T09:32:47;102114.59;;;14.06;nan
14343;BME280;7255;53.596;9.960;2023-05-07T09:35:17;102105.38;;;14.20;nan
14343;BME280;7255;53.596;9.960;2023-05-07T09:37:46;102109.25;;;13.86;nan
14343;BME280;7255;53.596;9.960;2023-05-07T09:40:21;102091.41;;;13.78;nan
14343;BME280;7255;53.596;9.960;2023-05-07T09:42:48;102093.25;;;13.91;nan
14343;BME280;7255;53.596;9.960;2023-05-07T09:45:15;102100.78;;;14.28;nan
14343;BME280;7255;53.596;9.960;2023-05-07T09:47:42;102113.56;;;14.46;nan
14343;BME280;7255;53.596;9.960;2023-05-07T09:50:12;102114.34;;;14.59;nan
14343;BME280;7255;53.596;9.960;2023-05-07T09:52:40;102108.41;;;14.76;nan
14343;BME280;7255;53.596;9.960;2023-05-07T09:55:07;102105.38;;;14.20;nan
14343;BME280;7255;53.596;9.960;2023-05-07T09:57:35;102114.69;;;14.70;nan
14343;BME280;7255;53.596;9.960;2023-05-07T10:00:03;102111.84;;;14.58;nan
14343;BME280;7255;53.596;9.960;2023-05-07T10:02:31;102114.69;;;14.70;nan
14343;BME280;7255;53.596;9.960;2023-05-07T10:04:59;102113.91;;;14.62;nan
14343;BME280;7255;53.596;9.960;2023-05-07T10:07:27;102112.97;;;13.98;nan
14343;BME280;7255;53.596;9.960;2023-05-07T10:09:53;102114.91;;;14.30;nan
14343;BME280;7255;53.596;9.960;2023-05-07T10:12:21;102118.00;;;14.72;nan
14343;BME280;7255;53.596;9.960;2023-05-07T10:14:50;102130.69;;;15.03;nan
14343;BME280;7255;53.596;9.960;2023-05-07T10:17:17;102122.13;;;15.31;nan
14343;BME280;7255;53.596;9.960;2023-05-07T10:19:44;102127.75;;;15.05;nan
14343;BME280;7255;53.596;9.960;2023-05-07T10:22:11;102129.31;;;14.62;nan
14343;BME280;7255;53.596;9.960;2023-05-07T10:24:40;102122.41;;;14.28;nan
14343;BME280;7255;53.596;9.960;2023-05-07T10:27:12;102122.81;;;14.24;nan
14343;BME280;7255;53.596;9.960;2023-05-07T10:29:46;102115.69;;;14.37;nan
14343;BME280;7255;53.596;9.960;2023-05-07T10:32:32;102122.22;;;14.68;nan
14343;BME280;7255;53.596;9.960;2023-05-07T10:35:01;102128.81;;;14.78;nan
14343;BME280;7255;53.596;9.960;2023-05-07T10:37:29;102125.00;;;15.11;nan
14343;BME280;7255;53.596;9.960;2023-05-07T10:39:55;102121.25;;;15.56;nan
14343;BME280;7255;53.596;9.960;2023-05-07T10:42:23;102118.69;;;15.43;nan
14343;BME280;7255;53.596;9.960;2023-05-07T10:44:49;102118.34;;;15.32;nan
14343;BME280;7255;53.596;9.960;2023-05-07T10:47:16;102112.31;;;15.12;nan
14343;BME280;7255;53.596;9.960;2023-05-07T10:50:21;102119.69;;;14.73;nan
14343;BME280;7255;53.596;9.960;2023-05-07T10:53:22;102119.31;;;14.56;nan
14343;BME280;7255;53.596;9.960;2023-05-07T10:55:53;102123.00;;;14.75;nan
14343;BME280;7255;53.596;9.960;2023-05-07T10:58:39;102114.41;;;14.46;nan
14343;BME280;7255;53.596;9.960;2023-05-07T11:01:05;102116.19;;;14.20;nan
14343;BME280;7255;53.596;9.960;2023-05-07T11:03:31;102098.28;;;14.26;nan
14343;BME280;7255;53.596;9.960;2023-05-07T11:06:11;102105.66;;;14.44;nan
14343;BME280;7255;53.596;9.960;2023-05-07T11:08:52;102116.34;;;14.71;nan
14343;BME280;7255;53.596;9.960;2023-05-07T11:11:19;102113.50;;;15.16;nan
14343;BME280;7255;53.596;9.960;2023-05-07T11:13:48;102109.28;;;15.20;nan
14343;BME280;7255;53.596;9.960;2023-05-07T11:16:17;102123.16;;;15.05;nan
14343;BME280;7255;53.596;9.960;2023-05-07T11:18:47;102119.66;;;15.30;nan
14343;BME280;7255;53.596;9.960;2023-05-07T11:21:31;102120.06;;;15.27;nan
14343;BME280;7255;53.596;9.960;2023-05-07T11:23:59;102127.22;;;15.65;nan
14343;BME280;7255;53.596;9.960;2023-05-07T11:26:27;102126.47;;;15.57;nan
14343;BME280;7255;53.596;9.960;2023-05-07T11:28:55;102126.06;;;15.54;nan
14343;BME280;7255;53.596;9.960;2023-05-07T11:31:24;102129.59;;;15.80;nan
14343;BME280;7255;53.596;9.960;2023-05-07T11:33:52;102127.47;;;15.82;nan
14343;BME280;7255;53.596;9.960;2023-05-07T11:36:18;102133.81;;;15.75;nan
14343;BME280;7255;53.596;9.960;2023-05-07T11:38:46;102123.00;;;16.06;nan
14343;BME280;7255;53.596;9.960;2023-05-07T11:41:12;102119.09;;;16.20;nan
14343;BME280;7255;53.596;9.960;2023-05-07T11:43:54;102114.84;;;16.24;nan
14343;BME280;7255;53.596;9.960;2023-05-07T11:46:21;102118.44;;;16.36;nan
14343;BME280;7255;53.596;9.960;2023-05-07T11:48:48;102125.06;;;16.71;nan
14343;BME280;7255;53.596;9.960;2023-05-07T11:51:18;102119.16;;;16.74;nan
14343;BME280;7255;53.596;9.960;2023-05-07T11:53:45;102119.44;;;16.84;nan
14343;BME280;7255;53.596;9.960;2023-05-07T11:56:12;102129.03;;;17.10;nan
14343;BME280;7255;53.596;9.960;2023-05-07T11:58:39;102119.25;;;17.45;nan
14343;BME280;7255;53.596;9.960;2023-05-07T12:01:08;102121.03;;;17.63;nan
14343;BME280;7255;53.596;9.960;2023-05-07T12:03:35;102114.63;;;17.69;nan
14343;BME280;7255;53.596;9.960;2023-05-07T12:06:03;102118.97;;;17.82;nan
14343;BME280;7255;53.596;9.960;2023-05-07T12:08:31;102112.34;;;18.01;nan
14343;BME280;7255;53.596;9.960;2023-05-07T12:10:57;102112.56;;;18.12;nan
14343;BME280;7255;53.596;9.960;2023-05-07T12:13:25;102113.81;;;17.68;nan
14343;BME280;7255;53.596;9.960;2023-05-07T12:15:52;102116.41;;;17.63;nan
14343;BME280;7255;53.596;9.960;2023-05-07T12:18:20;102114.06;;;17.55;nan
14343;BME280;7255;53.596;9.960;2023-05-07T12:20:47;102113.53;;;17.82;nan
14343;BME280;7255;53.596;9.960;2023-05-07T12:23:14;102119.13;;;17.75;nan
14343;BME280;7255;53.596;9.960;2023-05-07T12:25:42;102110.28;;;17.32;nan
14343;BME280;7255;53.596;9.960;2023-05-07T12:28:12;102105.00;;;17.26;nan
14343;BME280;7255;53.596;9.960;2023-05-07T12:30:39;102122.34;;;17.13;nan
14343;BME280;7255;53.596;9.960;2023-05-07T12:33:06;102106.06;;;17.37;nan
14343;BME280;7255;53.596;9.960;2023-05-07T12:35:37;102108.16;;;17.11;nan
14343;BME280;7255;53.596;9.960;2023-05-07T12:38:07;102112.06;;;17.50;nan
14343;BME280;7255;53.596;9.960;2023-05-07T12:40:38;102111.31;;;17.67;nan
14343;BME280;7255;53.596;9.960;2023-05-07T12:43:04;102110.00;;;17.93;nan
14343;BME280;7255;53.596;9.960;2023-05-07T12:45:30;102113.16;;;18.02;nan
14343;BME280;7255;53.596;9.960;2023-05-07T12:48:01;102117.50;;;17.62;nan
14343;BME280;7255;53.596;9.960;2023-05-07T12:50:31;102111.94;;;17.57;nan
14343;BME280;7255;53.596;9.960;2023-05-07T12:52:59;102102.47;;;17.72;nan
14343;BME280;7255;53.596;9.960;2023-05-07T12:55:25;102097.03;;;17.72;nan
14343;BME280;7255;53.596;9.960;2023-05-07T12:57:52;102108.13;;;17.58;nan
14343;BME280;7255;53.596;9.960;2023-05-07T13:00:32;102111.50;;;17.37;nan
14343;BME280;7255;53.596;9.960;2023-05-07T13:02:58;102110.78;;;17.29;nan
14343;BME280;7255;53.596;9.960;2023-05-07T13:05:25;102106.62;;;17.27;nan
14343;BME280;7255;53.596;9.960;2023-05-07T13:07:54;102106.62;;;17.15;nan
14343;BME280;7255;53.596;9.960;2023-05-07T13:10:22;102103.56;;;17.35;nan
14343;BME280;7255;53.596;9.960;2023-05-07T13:12:49;102112.06;;;17.50;nan
14343;BME280;7255;53.596;9.960;2023-05-07T13:15:16;102105.53;;;17.63;nan
14343;BME280;7255;53.596;9.960;2023-05-07T13:17:42;102098.47;;;17.86;nan
14343;BME280;7255;53.596;9.960;2023-05-07T13:20:10;102103.38;;;17.89;nan
14343;BME280;7255;53.596;9.960;2023-05-07T13:22:37;102096.25;;;17.24;nan
14343;BME280;7255;53.596;9.960;2023-05-07T13:25:04;102097.31;;;17.35;nan